Hauptseite
METAR-TAF:

METAR-TAF

Flughäfen :

Flughafen Rostock-Laage

Rostock, Deutschland

Breite: 53-55N, Länge: 012-17E, Höhe: 40 m

Beobachtung

Neuester Wetterbericht von vor 53 Minuten, um 04:20 UTC
Wind 3 kt aus Süd
Temperatur 7°C
Luftfeuchtigkeit 93%
Luftdruck 1025 hPa
Sichtweite 10 km oder mehr

METAR: ETNL 070420Z 18003KT 9999 07/06 Q1025 BLU+BLU+

Zeit: 07:13 (05:13 UTC)

Prognose

Neuester Wetterbericht von vor 1 Stunde und 3 Minuten, um 04:10 UTC
Gültige Prognose vom 07 um 05 UTC bis 07 um 17 UTC
Wind 10 kt aus Südwest, Böen bis zu 20 kt
Sichtweite 10 km oder mehr
Leicht bewölkt in der Höhe von 3000 ft

TAF: ETNL 070410Z 0705/0717 22010G20KT 9999 NSW FEW030 BY ETGL

Wetterbeobachtungen und Prognosen von mehr als 4000 Flughäfen (METAR und TAF Bericht).

Die verfügbaren Stationen werden durch gelbe und rote Markierungen auf der Karte dargestellt.

Führen Sie die Maus auf sie, um den Namen der Station zu sehen.

Darauf klicken, um die Beobachtung von Wetterbeobachtungen und Prognosen zu sehen.

Um die Karte zu ändern : klicken Sie auf den grünen Tasten mit einem schwarzen Kreuz Zum Vergrößern, auf den grünen Button mit einem Gedankenstrich zu verkleinern, oder auf die grünen Pfeile für benachbarte Karten.


METAR-TAF: